Terminal Aerodrome Forecast
Issued by NWS

Current Version | Previous Version | Graphics & Text | Print | Product List | Glossary On
Versions: 1 2 3 4 5 6 7 8 9 10 11 12 13 14 15 16 17 18 19 20 21 22 23 24 25 26 27 28 29 30 31 32 33 34
000
FTUS41 KRNK 261426 AAB
TAFLWB
TAF AMD
KLWB 261426Z 2614/2712 00000KT 1/4SM FZFG VV001
      TEMPO 2614/2615 5SM BR SCT001
     FM261500 VRB03KT P6SM SKC
     FM261800 24004KT P6SM SCT250
     FM270200 00000KT P6SM BKN250=

USA.gov is the U.S. government's official web portal to all federal, state and local government web resources and services.